createdAt,value
2019-02-11T00:02:09.760Z,97.10
2019-02-11T00:04:37.956Z,97.10
2019-02-11T00:07:06.151Z,96.90
2019-02-11T00:09:34.345Z,96.90
2019-02-11T00:12:02.528Z,97.00
2019-02-11T00:14:30.715Z,97.60
2019-02-11T00:16:58.926Z,97.30
2019-02-11T00:19:27.103Z,97.50
2019-02-11T00:21:55.292Z,97.40
2019-02-11T00:24:23.488Z,97.50
2019-02-11T00:26:51.672Z,97.60
2019-02-11T00:29:19.867Z,97.80
2019-02-11T00:31:48.055Z,98.00
2019-02-11T00:34:16.243Z,98.50
2019-02-11T00:36:44.439Z,98.70
2019-02-11T00:39:12.623Z,98.30
2019-02-11T00:41:40.815Z,98.10
2019-02-11T00:44:09.010Z,97.90
2019-02-11T00:46:37.203Z,97.50
2019-02-11T00:49:05.400Z,98.00
2019-02-11T00:51:33.584Z,97.80
2019-02-11T00:54:01.796Z,97.80
2019-02-11T00:56:29.983Z,97.80
2019-02-11T00:58:58.179Z,97.60
2019-02-11T01:01:26.368Z,97.60
2019-02-11T01:03:54.563Z,97.20
2019-02-11T01:06:22.752Z,96.90
2019-02-11T01:08:50.946Z,96.70
2019-02-11T01:11:19.136Z,96.70
2019-02-11T01:13:47.327Z,96.50
2019-02-11T01:16:15.506Z,96.70
2019-02-11T01:18:43.702Z,96.50
2019-02-11T01:21:11.887Z,96.30
2019-02-11T01:23:40.091Z,95.20
2019-02-11T01:26:08.275Z,94.90
2019-02-11T01:28:36.467Z,95.20
2019-02-11T01:31:04.654Z,95.60
2019-02-11T01:33:32.837Z,95.70
2019-02-11T01:36:01.031Z,95.40
2019-02-11T01:38:29.216Z,95.90
2019-02-11T01:40:57.414Z,95.70
2019-02-11T01:43:25.594Z,95.80
2019-02-11T01:45:53.792Z,95.90
2019-02-11T01:48:21.979Z,95.70
2019-02-11T01:50:50.180Z,96.10
2019-02-11T01:53:18.356Z,95.90
2019-02-11T01:55:46.561Z,96.10
2019-02-11T01:58:14.755Z,96.20
2019-02-11T02:00:42.942Z,96.30
2019-02-11T02:03:11.122Z,96.20
2019-02-11T02:05:39.323Z,95.90
2019-02-11T02:08:07.512Z,96.10
2019-02-11T02:10:35.715Z,96.00
2019-02-11T02:13:03.975Z,96.10
2019-02-11T02:15:32.229Z,96.10
2019-02-11T02:18:00.423Z,96.30
2019-02-11T02:20:28.612Z,96.40
2019-02-11T02:22:56.795Z,96.40
2019-02-11T02:25:25.003Z,96.30
2019-02-11T02:27:53.188Z,96.50
2019-02-11T02:30:21.372Z,96.50
2019-02-11T02:32:49.571Z,96.50
2019-02-11T02:35:17.778Z,96.30
2019-02-11T02:37:45.942Z,96.20
2019-02-11T02:40:14.143Z,96.00
2019-02-11T02:42:42.343Z,95.90
2019-02-11T02:45:10.528Z,95.80
2019-02-11T02:47:38.715Z,95.70
2019-02-11T02:50:08.875Z,95.60
2019-02-11T02:52:37.039Z,95.40
2019-02-11T02:55:06.779Z,95.30
2019-02-11T02:57:34.966Z,95.40
2019-02-11T03:00:03.235Z,94.80
2019-02-11T03:02:31.429Z,95.10
2019-02-11T03:04:59.619Z,95.00
2019-02-11T03:07:27.811Z,94.60
2019-02-11T03:09:56.023Z,95.00
2019-02-11T03:12:24.206Z,94.90
2019-02-11T03:14:52.405Z,94.70
2019-02-11T03:17:20.603Z,94.50
2019-02-11T03:19:48.796Z,94.80
2019-02-11T03:22:16.990Z,94.90
2019-02-11T03:24:45.176Z,95.20
2019-02-11T03:27:13.448Z,95.10
2019-02-11T03:29:41.641Z,95.00
2019-02-11T03:32:09.832Z,95.10
2019-02-11T03:34:38.015Z,95.20
2019-02-11T03:37:06.206Z,95.20
2019-02-11T03:39:34.401Z,95.30
2019-02-11T03:42:02.662Z,95.30
2019-02-11T03:44:30.859Z,95.30
2019-02-11T03:46:59.050Z,95.40
2019-02-11T03:49:27.239Z,95.60
2019-02-11T03:51:55.431Z,95.40
2019-02-11T03:54:23.640Z,95.30
2019-02-11T03:56:51.823Z,95.20
2019-02-11T03:59:20.027Z,95.40
2019-02-11T04:01:48.215Z,95.50
2019-02-11T04:04:16.407Z,95.50
2019-02-11T04:06:44.603Z,95.30
2019-02-11T04:09:12.784Z,95.30
2019-02-11T04:11:40.979Z,95.50
2019-02-11T04:14:09.178Z,95.50
2019-02-11T04:16:37.359Z,95.40
2019-02-11T04:19:05.556Z,95.40
2019-02-11T04:21:33.747Z,95.50
2019-02-11T04:24:01.928Z,95.40
2019-02-11T04:26:31.775Z,95.40
2019-02-11T04:28:59.958Z,95.40
2019-02-11T04:31:28.143Z,95.30
2019-02-11T04:33:58.268Z,95.40
2019-02-11T04:36:26.264Z,95.50
2019-02-11T04:38:54.448Z,95.20
2019-02-11T04:41:22.635Z,95.10
2019-02-11T04:43:50.826Z,94.80
2019-02-11T04:46:19.011Z,94.50
2019-02-11T04:48:47.216Z,94.90
2019-02-11T04:51:15.394Z,94.80
2019-02-11T04:53:43.587Z,94.70
2019-02-11T04:56:11.771Z,94.70
2019-02-11T04:58:39.975Z,94.30
2019-02-11T05:01:08.167Z,94.20
2019-02-11T05:03:36.360Z,94.30
2019-02-11T05:06:04.549Z,94.40
2019-02-11T05:08:32.745Z,94.30
2019-02-11T05:11:01.195Z,94.30
2019-02-11T05:13:29.387Z,94.50
2019-02-11T05:15:57.583Z,94.60
2019-02-11T05:18:25.775Z,94.40
2019-02-11T05:20:53.980Z,94.30
2019-02-11T05:23:22.169Z,94.50
2019-02-11T05:25:50.365Z,94.80
2019-02-11T05:28:18.551Z,94.80
2019-02-11T05:30:46.744Z,95.00
2019-02-11T05:33:15.021Z,95.10
2019-02-11T05:35:43.307Z,95.30
2019-02-11T05:38:11.508Z,95.40
2019-02-11T05:40:39.687Z,95.40
2019-02-11T05:43:07.890Z,95.50
2019-02-11T05:45:36.068Z,95.50
2019-02-11T05:48:04.255Z,95.50
2019-02-11T05:50:32.447Z,95.60
2019-02-11T05:53:00.630Z,95.60
2019-02-11T05:55:28.831Z,95.60
2019-02-11T05:57:57.012Z,96.00
2019-02-11T06:00:25.211Z,95.90
2019-02-11T06:02:53.394Z,95.90
2019-02-11T06:05:21.579Z,96.00
2019-02-11T06:07:49.775Z,96.00
2019-02-11T06:10:17.961Z,96.00
2019-02-11T06:12:46.164Z,96.10
2019-02-11T06:15:14.363Z,95.80
2019-02-11T06:17:42.551Z,95.80
2019-02-11T06:20:10.806Z,95.80
2019-02-11T06:22:39.007Z,95.70
2019-02-11T06:25:08.153Z,95.50
2019-02-11T06:27:36.436Z,95.60
2019-02-11T06:30:08.023Z,95.80
2019-02-11T06:32:36.215Z,95.60
2019-02-11T06:35:06.443Z,95.50
2019-02-11T06:37:34.639Z,95.40
2019-02-11T06:40:02.827Z,95.20
2019-02-11T06:42:31.020Z,95.10
2019-02-11T06:44:59.202Z,95.20
2019-02-11T06:47:27.403Z,95.00
2019-02-11T06:49:55.600Z,95.20
2019-02-11T06:52:23.787Z,95.10
2019-02-11T06:54:51.994Z,95.10
2019-02-11T06:57:20.189Z,95.00
2019-02-11T06:59:48.395Z,94.60
2019-02-11T07:02:16.579Z,94.90
2019-02-11T07:04:44.763Z,94.80
2019-02-11T07:07:12.967Z,94.90
2019-02-11T07:09:41.160Z,94.80
2019-02-11T07:12:09.351Z,94.70
2019-02-11T07:14:37.539Z,94.90
2019-02-11T07:17:05.740Z,94.80
2019-02-11T07:19:33.926Z,94.80
2019-02-11T07:22:02.123Z,94.80
2019-02-11T07:24:30.366Z,94.50
2019-02-11T07:26:58.587Z,94.70
2019-02-11T07:29:26.787Z,94.90
2019-02-11T07:31:54.967Z,95.10
2019-02-11T07:34:23.170Z,94.80
2019-02-11T07:36:51.364Z,94.80
2019-02-11T07:39:19.559Z,94.60
2019-02-11T07:42:07.690Z,94.10
2019-02-11T07:44:37.563Z,94.40
2019-02-11T07:47:06.715Z,94.30
2019-02-11T07:49:34.911Z,94.50
2019-02-11T07:52:15.554Z,94.30
2019-02-11T07:54:43.732Z,94.40
2019-02-11T07:57:11.927Z,94.20
2019-02-11T07:59:40.111Z,94.30
2019-02-11T08:02:08.308Z,94.10
2019-02-11T08:04:36.511Z,94.00
2019-02-11T08:07:04.703Z,94.00
2019-02-11T08:09:32.891Z,94.00
2019-02-11T08:12:01.093Z,94.00
2019-02-11T08:14:29.277Z,94.00
2019-02-11T08:16:57.467Z,93.80
2019-02-11T08:19:25.656Z,93.80
2019-02-11T08:21:53.860Z,93.30
2019-02-11T08:24:22.060Z,93.30
2019-02-11T08:26:50.252Z,93.30
2019-02-11T08:29:18.447Z,93.10
2019-02-11T08:31:46.643Z,93.30
2019-02-11T08:34:14.827Z,92.80
2019-02-11T08:36:43.027Z,93.20
2019-02-11T08:39:11.284Z,92.80
2019-02-11T08:41:39.487Z,92.80
2019-02-11T08:44:07.680Z,92.00
2019-02-11T08:46:35.872Z,91.60
2019-02-11T08:49:04.063Z,90.90
2019-02-11T08:51:32.319Z,90.70
2019-02-11T08:54:00.515Z,91.00
2019-02-11T08:56:28.700Z,90.50
2019-02-11T08:58:56.895Z,90.10
2019-02-11T09:01:25.091Z,90.40
2019-02-11T09:03:53.279Z,91.10
2019-02-11T09:06:21.476Z,89.00
2019-02-11T09:08:49.670Z,83.80
2019-02-11T09:11:17.867Z,79.40
2019-02-11T09:13:46.063Z,77.30
2019-02-11T09:16:14.255Z,74.60
2019-02-11T09:18:42.459Z,73.30
2019-02-11T09:21:10.659Z,72.80
2019-02-11T09:23:38.855Z,72.30
2019-02-11T09:26:07.052Z,70.70
2019-02-11T09:28:35.251Z,69.80
2019-02-11T09:31:03.456Z,70.50
2019-02-11T09:33:31.647Z,67.80
2019-02-11T09:35:59.846Z,70.00
2019-02-11T09:38:28.037Z,69.90
2019-02-11T09:40:56.236Z,70.20
2019-02-11T09:43:24.467Z,72.90
2019-02-11T09:45:52.695Z,71.90
2019-02-11T09:48:20.892Z,76.40
2019-02-11T09:50:49.516Z,76.00
2019-02-11T09:53:17.717Z,74.10
2019-02-11T09:55:45.899Z,77.30
2019-02-11T09:58:33.533Z,79.30
2019-02-11T10:01:01.718Z,76.30
2019-02-11T10:03:29.904Z,75.00
2019-02-11T10:05:58.133Z,74.80
2019-02-11T10:08:45.724Z,73.60
2019-02-11T10:11:14.215Z,78.90
2019-02-11T10:13:42.403Z,78.80
2019-02-11T10:16:12.602Z,80.20
2019-02-11T10:18:40.514Z,82.60
2019-02-11T10:21:08.702Z,82.40
2019-02-11T10:23:36.884Z,84.20
2019-02-11T10:26:05.087Z,87.10
2019-02-11T10:28:33.281Z,86.30
2019-02-11T10:31:01.472Z,84.80
2019-02-11T10:33:29.655Z,80.30
2019-02-11T10:35:57.847Z,82.80
2019-02-11T10:38:27.613Z,82.10
2019-02-11T10:40:56.021Z,82.50
2019-02-11T10:43:24.203Z,85.80
2019-02-11T10:45:52.411Z,87.20
2019-02-11T10:48:20.610Z,85.30
2019-02-11T10:50:48.807Z,76.30
2019-02-11T10:53:17.007Z,71.90
2019-02-11T10:55:45.195Z,70.70
2019-02-11T10:58:13.391Z,74.10
2019-02-11T11:00:41.863Z,74.40
2019-02-11T11:03:10.064Z,72.20
2019-02-11T11:05:38.273Z,72.00
2019-02-11T11:08:06.467Z,75.60
2019-02-11T11:10:39.144Z,75.10
2019-02-11T11:13:07.337Z,76.00
2019-02-11T11:15:35.531Z,79.40
2019-02-11T11:18:03.715Z,80.30
2019-02-11T11:20:31.911Z,81.90
2019-02-11T11:23:00.099Z,83.20
2019-02-11T11:25:28.296Z,83.40
2019-02-11T11:27:56.497Z,83.30
2019-02-11T11:30:24.679Z,84.30
2019-02-11T11:32:52.875Z,78.20
2019-02-11T11:35:21.084Z,74.60
2019-02-11T11:37:49.268Z,73.60
2019-02-11T11:40:19.006Z,72.10
2019-02-11T11:42:47.203Z,73.00
2019-02-11T11:45:20.315Z,73.40
2019-02-11T11:47:48.506Z,71.80
2019-02-11T11:50:17.138Z,73.70
2019-02-11T11:52:45.337Z,75.50
2019-02-11T11:55:17.217Z,77.60
2019-02-11T11:57:45.429Z,72.30
2019-02-11T12:00:24.895Z,66.60
2019-02-11T12:03:01.611Z,62.90
2019-02-11T12:05:23.135Z,59.80
2019-02-11T12:07:51.362Z,60.20
2019-02-11T12:10:19.616Z,58.60
2019-02-11T12:12:47.824Z,58.00
2019-02-11T12:15:20.692Z,57.20
2019-02-11T12:17:48.897Z,56.70
2019-02-11T12:20:17.099Z,60.30
2019-02-11T12:22:45.330Z,65.80
2019-02-11T12:25:17.691Z,70.10
2019-02-11T12:27:45.923Z,72.40
2019-02-11T12:30:25.013Z,75.00
2019-02-11T12:32:54.676Z,75.20
2019-02-11T12:35:23.236Z,77.50
2019-02-11T12:37:51.505Z,77.40
2019-02-11T12:40:19.718Z,78.80
2019-02-11T12:42:48.272Z,78.40
2019-02-11T12:45:19.192Z,80.10
2019-02-11T12:47:47.448Z,80.20
2019-02-11T12:50:17.088Z,80.10
2019-02-11T12:53:04.712Z,79.20
2019-02-11T12:55:32.906Z,77.40
2019-02-11T12:58:01.096Z,76.90
2019-02-11T13:00:29.550Z,79.70
2019-02-11T13:02:57.739Z,77.50
2019-02-11T13:05:43.187Z,77.30
2019-02-11T13:07:56.223Z,79.90
2019-02-11T13:10:24.400Z,78.30
2019-02-11T13:12:52.599Z,78.00
2019-02-11T13:15:42.808Z,78.90
2019-02-11T13:17:50.881Z,80.50
2019-02-11T13:20:19.650Z,80.10
2019-02-11T13:22:48.411Z,80.60
2019-02-11T13:25:17.359Z,82.20
2019-02-11T13:27:45.624Z,83.60
2019-02-11T13:30:19.350Z,88.30
2019-02-11T13:32:47.533Z,88.20
2019-02-11T13:35:15.734Z,88.50
2019-02-11T13:37:43.925Z,90.30
2019-02-11T13:40:12.201Z,90.70
2019-02-11T13:42:40.454Z,91.10
2019-02-11T13:45:13.167Z,91.30
2019-02-11T13:47:53.298Z,91.80
2019-02-11T13:50:14.552Z,91.00
2019-02-11T13:52:42.746Z,91.20
2019-02-11T13:55:10.935Z,91.80
2019-02-11T13:57:39.134Z,92.50
2019-02-11T14:00:16.998Z,93.20
2019-02-11T14:02:48.295Z,93.40
2019-02-11T14:05:16.770Z,93.60
2019-02-11T14:07:44.946Z,93.70
2019-02-11T14:10:13.143Z,93.00
2019-02-11T14:12:41.338Z,92.10
2019-02-11T14:15:09.527Z,91.30
2019-02-11T14:17:38.039Z,90.30
2019-02-11T14:20:26.210Z,90.10
2019-02-11T14:22:54.479Z,90.00
2019-02-11T14:25:41.249Z,90.00
2019-02-11T14:27:52.845Z,90.00
2019-02-11T14:30:22.351Z,91.10
2019-02-11T14:32:50.959Z,91.10
2019-02-11T14:35:20.114Z,91.20
2019-02-11T14:37:48.505Z,91.10
2019-02-11T14:40:16.697Z,91.00
2019-02-11T14:42:44.925Z,91.10
2019-02-11T14:45:15.971Z,90.70
2019-02-11T14:47:44.888Z,90.90
2019-02-11T14:50:13.118Z,91.40
2019-02-11T14:52:41.311Z,90.50
2019-02-11T14:55:10.896Z,90.60
2019-02-11T14:57:39.091Z,90.20
2019-02-11T15:00:17.677Z,83.60
2019-02-11T15:02:45.871Z,77.40
2019-02-11T15:05:14.647Z,76.00
2019-02-11T15:07:42.939Z,72.20
2019-02-11T15:10:12.379Z,74.80
2019-02-11T15:12:40.580Z,75.60
2019-02-11T15:15:10.203Z,74.60
2019-02-11T15:17:39.744Z,71.10
2019-02-11T15:20:10.074Z,70.10
2019-02-11T15:22:38.265Z,70.50
2019-02-11T15:25:09.759Z,72.20
2019-02-11T15:27:38.294Z,72.20
2019-02-11T15:30:09.365Z,72.50
2019-02-11T15:32:37.567Z,74.10
2019-02-11T15:35:07.195Z,72.50
2019-02-11T15:37:35.395Z,72.70
2019-02-11T15:40:05.795Z,73.10
2019-02-11T15:42:34.000Z,73.30
2019-02-11T15:45:02.188Z,73.60
2019-02-11T15:47:30.383Z,74.90
2019-02-11T15:49:58.588Z,75.80
2019-02-11T15:52:26.779Z,76.40
2019-02-11T15:54:54.975Z,76.70
2019-02-11T15:57:23.167Z,77.50
2019-02-11T15:59:51.382Z,77.50
2019-02-11T16:02:19.565Z,77.50
2019-02-11T16:04:47.750Z,77.70
2019-02-11T16:07:15.947Z,79.10
2019-02-11T16:09:44.140Z,78.90
2019-02-11T16:12:12.370Z,79.40
2019-02-11T16:14:40.607Z,79.90
2019-02-11T16:17:08.800Z,79.20
2019-02-11T16:19:36.992Z,81.00
2019-02-11T16:22:05.195Z,82.00
2019-02-11T16:24:33.380Z,84.10
2019-02-11T16:27:01.563Z,86.20
2019-02-11T16:29:29.768Z,86.70
2019-02-11T16:32:00.782Z,87.40
2019-02-11T16:34:27.875Z,89.40
2019-02-11T16:36:56.060Z,90.60
2019-02-11T16:39:24.270Z,90.80
2019-02-11T16:41:52.471Z,91.30
2019-02-11T16:44:20.668Z,92.00
2019-02-11T16:46:48.857Z,91.70
2019-02-11T16:49:17.051Z,92.20
2019-02-11T16:51:45.255Z,92.60
2019-02-11T16:54:13.469Z,93.10
2019-02-11T16:56:41.659Z,93.30
2019-02-11T16:59:09.852Z,93.40
2019-02-11T17:01:38.051Z,93.60
2019-02-11T17:04:06.248Z,93.70
2019-02-11T17:06:34.435Z,94.10
2019-02-11T17:09:02.628Z,94.50
2019-02-11T17:11:30.829Z,94.90
2019-02-11T17:13:59.015Z,95.00
2019-02-11T17:16:27.219Z,95.20
2019-02-11T17:18:55.408Z,95.30
2019-02-11T17:21:23.591Z,95.30
2019-02-11T17:23:51.804Z,95.40
2019-02-11T17:26:20.015Z,95.60
2019-02-11T17:28:48.219Z,95.40
2019-02-11T17:31:16.793Z,95.00
2019-02-11T17:33:44.976Z,94.00
2019-02-11T17:36:13.184Z,93.60
2019-02-11T17:38:41.376Z,93.30
2019-02-11T17:41:09.577Z,93.30
2019-02-11T17:43:38.020Z,92.90
2019-02-11T17:46:06.384Z,92.90
2019-02-11T17:48:34.596Z,92.80
2019-02-11T17:51:02.808Z,92.60
2019-02-11T17:53:30.999Z,92.60
2019-02-11T17:55:59.186Z,92.70
2019-02-11T17:58:27.396Z,92.80
2019-02-11T18:00:57.239Z,93.10
2019-02-11T18:03:25.423Z,93.40
2019-02-11T18:05:53.627Z,93.70
2019-02-11T18:08:21.811Z,93.80
2019-02-11T18:10:50.012Z,93.70
2019-02-11T18:13:18.207Z,93.90
2019-02-11T18:15:46.403Z,94.00
2019-02-11T18:18:14.600Z,94.00
2019-02-11T18:20:42.792Z,94.30
2019-02-11T18:23:10.988Z,94.40
2019-02-11T18:25:39.194Z,94.60
2019-02-11T18:28:07.391Z,94.60
2019-02-11T18:30:35.583Z,94.80
2019-02-11T18:33:03.794Z,95.00
2019-02-11T18:35:31.985Z,95.30
2019-02-11T18:38:00.179Z,95.10
2019-02-11T18:40:28.359Z,95.20
2019-02-11T18:42:56.564Z,95.30
2019-02-11T18:45:24.768Z,95.60
2019-02-11T18:47:52.959Z,95.70
2019-02-11T18:50:21.147Z,96.00
2019-02-11T18:52:49.353Z,96.30
2019-02-11T18:55:18.806Z,96.20
2019-02-11T18:57:46.988Z,96.30
2019-02-11T19:00:19.417Z,96.30
2019-02-11T19:02:47.999Z,96.30
2019-02-11T19:05:16.259Z,96.10
2019-02-11T19:07:44.460Z,96.00
2019-02-11T19:10:15.143Z,96.00
2019-02-11T19:12:43.340Z,95.90
2019-02-11T19:15:16.009Z,96.10
2019-02-11T19:17:44.192Z,96.20
2019-02-11T19:20:14.136Z,96.10
2019-02-11T19:22:42.323Z,95.90
2019-02-11T19:25:11.467Z,96.20
2019-02-11T19:27:39.660Z,96.30
2019-02-11T19:30:20.908Z,96.30
2019-02-11T19:32:49.048Z,96.30
2019-02-11T19:35:17.237Z,96.20
2019-02-11T19:37:45.443Z,96.20
2019-02-11T19:40:20.567Z,96.40
2019-02-11T19:42:48.771Z,96.50
2019-02-11T19:45:21.824Z,96.40
2019-02-11T19:47:50.020Z,96.30
2019-02-11T19:50:18.493Z,96.40
2019-02-11T19:52:47.048Z,96.40
2019-02-11T19:55:16.288Z,96.50
2019-02-11T19:57:44.476Z,96.40
2019-02-11T20:00:20.168Z,96.40
2019-02-11T20:02:48.999Z,96.40
2019-02-11T20:05:17.197Z,96.40
2019-02-11T20:07:45.456Z,96.60
2019-02-11T20:10:15.692Z,96.70
2019-02-11T20:12:43.902Z,96.80
2019-02-11T20:15:17.400Z,96.90
2019-02-11T20:17:45.603Z,97.00
2019-02-11T20:20:16.697Z,96.90
2019-02-11T20:22:44.908Z,96.80
2019-02-11T20:25:13.096Z,96.80
2019-02-11T20:27:41.320Z,96.80
2019-02-11T20:30:15.259Z,96.50
2019-02-11T20:32:43.459Z,96.40
2019-02-11T20:35:11.661Z,96.60
2019-02-11T20:37:39.856Z,96.90
2019-02-11T20:40:11.355Z,97.00
2019-02-11T20:42:39.551Z,97.10
2019-02-11T20:45:11.084Z,97.00
2019-02-11T20:47:39.309Z,96.90
2019-02-11T20:50:10.447Z,97.00
2019-02-11T20:52:38.216Z,97.10
2019-02-11T20:55:09.717Z,97.10
2019-02-11T20:57:37.908Z,97.20
2019-02-11T21:00:12.753Z,97.20
2019-02-11T21:02:40.952Z,97.20
2019-02-11T21:05:09.920Z,97.20
2019-02-11T21:07:38.113Z,97.10
2019-02-11T21:10:18.083Z,97.20
2019-02-11T21:12:46.269Z,97.30
2019-02-11T21:15:15.903Z,97.40
2019-02-11T21:17:44.103Z,97.40
2019-02-11T21:20:17.639Z,97.50
2019-02-11T21:22:45.796Z,97.50
2019-02-11T21:25:14.056Z,97.50
2019-02-11T21:27:42.269Z,97.40
2019-02-11T21:30:12.401Z,97.40
2019-02-11T21:32:40.588Z,97.60
2019-02-11T21:35:10.632Z,97.50
2019-02-11T21:37:39.997Z,97.50
2019-02-11T21:40:08.552Z,97.70
2019-02-11T21:42:37.128Z,97.90
2019-02-11T21:45:08.367Z,98.00
2019-02-11T21:47:36.564Z,98.30
2019-02-11T21:50:08.059Z,97.90
2019-02-11T21:52:36.271Z,98.10
2019-02-11T21:55:07.312Z,98.00
2019-02-11T21:57:35.515Z,98.10
2019-02-11T22:00:04.748Z,98.00
2019-02-11T22:02:32.951Z,98.00
2019-02-11T22:05:01.140Z,98.20
2019-02-11T22:07:29.335Z,98.20
2019-02-11T22:09:57.585Z,98.10
2019-02-11T22:12:25.804Z,98.00
2019-02-11T22:14:54.011Z,98.10
2019-02-11T22:17:22.203Z,98.00
2019-02-11T22:19:50.392Z,98.10
2019-02-11T22:22:18.591Z,98.20
2019-02-11T22:24:46.783Z,98.10
2019-02-11T22:27:14.983Z,98.20
2019-02-11T22:29:43.176Z,98.20
2019-02-11T22:32:11.377Z,98.20
2019-02-11T22:34:39.571Z,98.20
2019-02-11T22:37:07.787Z,98.10
2019-02-11T22:39:35.963Z,97.90
2019-02-11T22:42:04.167Z,97.90
2019-02-11T22:44:32.363Z,98.10
2019-02-11T22:47:00.547Z,98.10
2019-02-11T22:49:28.755Z,98.10
2019-02-11T22:51:56.964Z,98.30
2019-02-11T22:54:25.151Z,98.40
2019-02-11T22:56:53.339Z,98.40
2019-02-11T22:59:21.552Z,98.40
2019-02-11T23:01:49.749Z,98.40
2019-02-11T23:04:17.942Z,98.50
2019-02-11T23:06:46.141Z,98.40
2019-02-11T23:09:14.339Z,98.40
2019-02-11T23:11:42.543Z,98.40
2019-02-11T23:14:10.745Z,98.20
2019-02-11T23:16:38.948Z,98.10
2019-02-11T23:19:07.139Z,98.20
2019-02-11T23:21:35.340Z,98.30
2019-02-11T23:24:03.531Z,98.20
2019-02-11T23:26:31.739Z,98.00
2019-02-11T23:28:59.936Z,98.00
2019-02-11T23:31:28.135Z,98.20
2019-02-11T23:33:56.339Z,98.30
2019-02-11T23:36:24.524Z,98.30
2019-02-11T23:38:52.743Z,98.30
2019-02-11T23:41:20.936Z,98.30
2019-02-11T23:43:49.128Z,98.40
2019-02-11T23:46:17.335Z,98.30
2019-02-11T23:48:45.534Z,98.40
2019-02-11T23:51:13.719Z,98.70
2019-02-11T23:53:41.924Z,98.40
2019-02-11T23:56:10.117Z,98.50
2019-02-11T23:58:38.321Z,98.30
